F/V Carmalia — FMFK — position and weather

sailwx.info

Track history (hours):
 
Tides and Currents Weather Stations Pressure Air Temp Water Temp Dewpoint Dewpoint Depression Visibility Wind Speed Wind Dir Waves Ship Positions

F/V Carmalia

Last reported at 2015-Mar-01 18:28 UTC. Time now 2015-Mar-04 04:23 UTC.
Position N 47°25' W 003°27'.

Length 17 m.

Type: Fishing. MMSI: 228222900.

Date/timePositionNaut miles runAvg speedWind from/ knotsBaromVisibWave heightAir tempDewpointWater temp
2015-Mar-01 18:28N 47°25' W 003°27'8 8.9
2015-Mar-01 17:33N 47°33' W 003°25'9 9.1
2015-Mar-01 16:33N 47°42' W 003°22'2 2.2
2015-Mar-01 15:33N 47°44' W 003°22'0 0.0
2015-Mar-01 14:33N 47°44' W 003°22'0 0.0
2015-Mar-01 13:34N 47°44' W 003°22'0 0.0
2015-Mar-01 12:33N 47°44' W 003°22'0 0.0
2015-Mar-01 11:34N 47°44' W 003°22'2 2.5
2015-Mar-01 10:33N 47°41' W 003°22'10 9.6
2015-Mar-01 09:33N 47°32' W 003°25'  
2015-Feb-25 12:06N 47°29' W 003°26'5 9.2
2015-Feb-25 11:33N 47°34' W 003°25'9 9.1
2015-Feb-25 10:34N 47°43' W 003°22'1 1.2
2015-Feb-25 09:33N 47°44' W 003°22'0 0.0
2015-Feb-25 08:34N 47°44' W 003°22'0 0.0
2015-Feb-23 22:33N 47°44' W 003°22'0 0.1
2015-Feb-23 21:33N 47°44' W 003°22'0 0.2
2015-Feb-23 20:33N 47°44' W 003°22'0 0.0
2015-Feb-23 19:33N 47°44' W 003°22'0 0.0
2015-Feb-23 18:33N 47°44' W 003°22'3 3.0
2015-Feb-23 17:33N 47°41' W 003°22'9 9.1
2015-Feb-23 16:33N 47°32' W 003°24'  
Track history (hours):
 
Tides and Currents Weather Stations Pressure Air Temp Water Temp Dewpoint Dewpoint Depression Visibility Wind Speed Wind Dir Waves Ship Positions

F/V Carmalia

Last reported at 2015-Mar-01 18:28 UTC. Time now 2015-Mar-04 04:23 UTC.
Position N 47°25' W 003°27'.

Length 17 m.

Type: Fishing. MMSI: 228222900.

Date/timePositionNaut miles runAvg speedWind from/ knotsBaromVisibWave heightAir tempDewpointWater temp
2015-Mar-01 18:28N 47°25' W 003°27'8 8.9
2015-Mar-01 17:33N 47°33' W 003°25'9 9.1
2015-Mar-01 16:33N 47°42' W 003°22'2 2.2
2015-Mar-01 15:33N 47°44' W 003°22'0 0.0
2015-Mar-01 14:33N 47°44' W 003°22'0 0.0
2015-Mar-01 13:34N 47°44' W 003°22'0 0.0
2015-Mar-01 12:33N 47°44' W 003°22'0 0.0
2015-Mar-01 11:34N 47°44' W 003°22'2 2.5
2015-Mar-01 10:33N 47°41' W 003°22'10 9.6
2015-Mar-01 09:33N 47°32' W 003°25'  
2015-Feb-25 12:06N 47°29' W 003°26'5 9.2
2015-Feb-25 11:33N 47°34' W 003°25'9 9.1
2015-Feb-25 10:34N 47°43' W 003°22'1 1.2
2015-Feb-25 09:33N 47°44' W 003°22'0 0.0
2015-Feb-25 08:34N 47°44' W 003°22'0 0.0
2015-Feb-23 22:33N 47°44' W 003°22'0 0.1
2015-Feb-23 21:33N 47°44' W 003°22'0 0.2
2015-Feb-23 20:33N 47°44' W 003°22'0 0.0
2015-Feb-23 19:33N 47°44' W 003°22'0 0.0
2015-Feb-23 18:33N 47°44' W 003°22'3 3.0
2015-Feb-23 17:33N 47°41' W 003°22'9 9.1
2015-Feb-23 16:33N 47°32' W 003°24'  

Dump ship's entire track history